createdAt,value
2018-03-25T00:01:45.049Z,87.06
2018-03-25T00:04:15.799Z,87.10
2018-03-25T00:06:46.568Z,87.13
2018-03-25T00:09:17.301Z,87.49
2018-03-25T00:11:48.060Z,87.82
2018-03-25T00:14:18.808Z,88.06
2018-03-25T00:16:49.591Z,88.14
2018-03-25T00:19:20.323Z,88.23
2018-03-25T00:21:51.096Z,88.54
2018-03-25T00:24:21.844Z,88.51
2018-03-25T00:26:52.588Z,88.57
2018-03-25T00:29:23.334Z,88.66
2018-03-25T00:31:54.098Z,88.72
2018-03-25T00:34:24.837Z,88.87
2018-03-25T00:36:55.581Z,88.95
2018-03-25T00:39:26.320Z,89.06
2018-03-25T00:41:57.072Z,89.22
2018-03-25T00:44:27.808Z,89.41
2018-03-25T00:46:58.561Z,89.39
2018-03-25T00:49:29.303Z,89.07
2018-03-25T00:52:00.066Z,89.00
2018-03-25T00:54:30.797Z,89.08
2018-03-25T00:57:01.563Z,88.94
2018-03-25T00:59:32.305Z,88.98
2018-03-25T01:02:03.080Z,88.95
2018-03-25T01:04:33.825Z,89.02
2018-03-25T01:07:04.581Z,88.98
2018-03-25T01:09:35.320Z,89.05
2018-03-25T01:12:06.081Z,89.01
2018-03-25T01:14:36.820Z,89.05
2018-03-25T01:17:07.564Z,89.25
2018-03-25T01:19:38.300Z,89.21
2018-03-25T01:22:09.040Z,89.25
2018-03-25T01:24:39.764Z,89.25
2018-03-25T01:27:10.519Z,89.31
2018-03-25T01:29:41.264Z,89.54
2018-03-25T01:32:12.021Z,89.73
2018-03-25T01:34:42.754Z,90.04
2018-03-25T01:37:13.513Z,90.21
2018-03-25T01:39:44.236Z,90.39
2018-03-25T01:42:15.000Z,90.43
2018-03-25T01:44:45.739Z,90.43
2018-03-25T01:47:16.477Z,90.40
2018-03-25T01:49:47.201Z,90.60
2018-03-25T01:52:17.974Z,90.74
2018-03-25T01:54:48.725Z,90.77
2018-03-25T01:57:19.497Z,90.97
2018-03-25T01:59:50.252Z,90.89
2018-03-25T02:02:21.008Z,90.91
2018-03-25T02:04:51.752Z,91.06
2018-03-25T02:07:22.525Z,91.18
2018-03-25T02:09:53.268Z,91.32
2018-03-25T02:12:24.052Z,91.50
2018-03-25T02:14:54.807Z,91.64
2018-03-25T02:17:25.564Z,91.65
2018-03-25T02:19:56.324Z,91.68
2018-03-25T02:22:27.104Z,91.65
2018-03-25T02:24:57.861Z,91.59
2018-03-25T02:27:28.636Z,91.68
2018-03-25T02:29:59.399Z,91.56
2018-03-25T02:32:30.180Z,91.51
2018-03-25T02:35:00.929Z,91.74
2018-03-25T02:37:31.717Z,91.85
2018-03-25T02:40:02.486Z,91.89
2018-03-25T02:42:33.266Z,91.99
2018-03-25T02:45:04.019Z,92.02
2018-03-25T02:47:34.780Z,92.10
2018-03-25T02:50:05.549Z,92.25
2018-03-25T02:52:36.327Z,92.49
2018-03-25T02:55:07.085Z,92.45
2018-03-25T02:57:37.874Z,92.54
2018-03-25T03:00:08.645Z,92.66
2018-03-25T03:02:39.413Z,92.48
2018-03-25T03:05:10.169Z,92.54
2018-03-25T03:07:40.949Z,92.59
2018-03-25T03:10:11.684Z,92.45
2018-03-25T03:12:42.447Z,92.42
2018-03-25T03:15:13.197Z,92.34
2018-03-25T03:17:43.958Z,92.25
2018-03-25T03:20:14.725Z,92.30
2018-03-25T03:22:45.495Z,92.14
2018-03-25T03:25:16.264Z,92.18
2018-03-25T03:27:47.029Z,92.29
2018-03-25T03:30:17.786Z,92.47
2018-03-25T03:32:48.547Z,92.59
2018-03-25T03:35:19.300Z,92.68
2018-03-25T03:37:50.079Z,92.79
2018-03-25T03:40:20.821Z,92.88
2018-03-25T03:42:51.563Z,92.89
2018-03-25T03:45:22.324Z,92.91
2018-03-25T03:47:53.080Z,92.89
2018-03-25T03:50:23.817Z,93.01
2018-03-25T03:52:54.577Z,93.01
2018-03-25T03:55:25.308Z,93.23
2018-03-25T03:57:56.152Z,93.19
2018-03-25T04:00:26.888Z,93.22
2018-03-25T04:02:57.617Z,93.26
2018-03-25T04:05:28.353Z,93.27
2018-03-25T04:07:59.118Z,93.32
2018-03-25T04:10:29.856Z,93.34
2018-03-25T04:13:00.608Z,93.59
2018-03-25T04:15:31.348Z,93.52
2018-03-25T04:18:02.110Z,93.77
2018-03-25T04:20:32.832Z,93.77
2018-03-25T04:23:03.593Z,93.91
2018-03-25T04:25:34.328Z,93.91
2018-03-25T04:28:05.077Z,93.85
2018-03-25T04:30:35.816Z,93.85
2018-03-25T04:33:06.573Z,93.88
2018-03-25T04:35:37.307Z,93.72
2018-03-25T04:38:08.061Z,93.62
2018-03-25T04:40:38.792Z,93.68
2018-03-25T04:43:09.541Z,93.63
2018-03-25T04:45:40.264Z,93.66
2018-03-25T04:48:11.028Z,93.56
2018-03-25T04:50:41.774Z,93.44
2018-03-25T04:53:12.532Z,93.32
2018-03-25T04:55:43.265Z,93.37
2018-03-25T04:58:14.035Z,93.53
2018-03-25T05:00:44.760Z,93.60
2018-03-25T05:03:15.500Z,93.73
2018-03-25T05:05:46.232Z,93.80
2018-03-25T05:08:16.968Z,93.87
2018-03-25T05:10:47.712Z,93.99
2018-03-25T05:13:18.456Z,94.15
2018-03-25T05:15:49.189Z,94.27
2018-03-25T05:18:19.936Z,94.29
2018-03-25T05:20:50.669Z,94.36
2018-03-25T05:23:21.409Z,94.44
2018-03-25T05:25:52.135Z,94.56
2018-03-25T05:28:22.880Z,94.68
2018-03-25T05:30:53.625Z,94.78
2018-03-25T05:33:24.377Z,94.73
2018-03-25T05:35:55.141Z,94.63
2018-03-25T05:38:25.886Z,94.56
2018-03-25T05:40:56.632Z,94.46
2018-03-25T05:43:27.366Z,94.21
2018-03-25T05:45:58.100Z,94.06
2018-03-25T05:48:28.841Z,93.82
2018-03-25T05:50:59.614Z,93.40
2018-03-25T05:53:30.365Z,92.91
2018-03-25T05:56:01.112Z,92.54
2018-03-25T05:58:31.874Z,91.90
2018-03-25T06:01:02.620Z,91.55
2018-03-25T06:03:33.356Z,91.05
2018-03-25T06:06:04.087Z,91.00
2018-03-25T06:08:34.848Z,90.65
2018-03-25T06:11:05.572Z,90.18
2018-03-25T06:13:36.326Z,89.69
2018-03-25T06:16:07.072Z,88.94
2018-03-25T06:18:38.144Z,88.69
2018-03-25T06:21:08.912Z,88.09
2018-03-25T06:23:39.740Z,87.87
2018-03-25T06:26:10.478Z,87.74
2018-03-25T06:28:41.237Z,87.67
2018-03-25T06:31:11.970Z,87.66
2018-03-25T06:33:42.708Z,87.83
2018-03-25T06:36:13.494Z,87.17
2018-03-25T06:38:44.232Z,86.82
2018-03-25T06:41:14.962Z,86.51
2018-03-25T06:43:45.700Z,86.02
2018-03-25T06:46:16.440Z,85.82
2018-03-25T06:48:54.232Z,85.64
2018-03-25T06:51:25.001Z,85.51
2018-03-25T06:53:55.745Z,85.34
2018-03-25T06:56:26.488Z,84.91
2018-03-25T06:58:57.266Z,83.98
2018-03-25T07:01:27.992Z,83.61
2018-03-25T07:03:58.737Z,82.92
2018-03-25T07:06:29.465Z,80.11
2018-03-25T07:09:00.228Z,71.55
2018-03-25T07:11:30.959Z,65.99
2018-03-25T07:14:01.717Z,60.26
2018-03-25T07:16:32.461Z,58.43
2018-03-25T07:19:03.222Z,56.58
2018-03-25T07:21:34.010Z,54.04
2018-03-25T07:24:04.731Z,50.50
2018-03-25T07:26:35.468Z,47.68
2018-03-25T07:29:06.232Z,46.82
2018-03-25T07:31:36.972Z,45.66
2018-03-25T07:34:07.727Z,47.34
2018-03-25T07:36:38.468Z,47.11
2018-03-25T07:39:09.224Z,46.27
2018-03-25T07:41:39.964Z,45.77
2018-03-25T07:44:10.733Z,43.77
2018-03-25T07:46:41.513Z,44.21
2018-03-25T07:49:12.266Z,44.89
2018-03-25T07:51:43.036Z,42.56
2018-03-25T07:54:13.810Z,42.71
2018-03-25T07:56:44.597Z,44.69
2018-03-25T07:59:15.381Z,46.00
2018-03-25T08:01:46.174Z,45.49
2018-03-25T08:04:16.948Z,46.21
2018-03-25T08:20:09.286Z,49.77
2018-03-25T08:22:40.081Z,48.47
2018-03-25T08:25:10.888Z,48.48
2018-03-25T08:27:41.641Z,49.21
2018-03-25T08:30:12.408Z,50.72
2018-03-25T08:32:43.158Z,51.17
2018-03-25T08:35:13.917Z,48.78
2018-03-25T08:37:44.709Z,50.62
2018-03-25T08:40:15.507Z,52.47
2018-03-25T08:42:46.242Z,52.52
2018-03-25T08:45:17.048Z,51.76
2018-03-25T08:47:47.802Z,50.85
2018-03-25T08:50:18.601Z,50.50
2018-03-25T08:52:49.373Z,51.14
2018-03-25T08:55:20.206Z,49.56
2018-03-25T08:57:51.024Z,49.35
2018-03-25T09:00:21.777Z,48.31
2018-03-25T09:02:52.541Z,48.78
2018-03-25T09:05:23.330Z,49.63
2018-03-25T09:07:54.081Z,49.00
2018-03-25T09:10:24.861Z,49.62
2018-03-25T09:12:55.608Z,49.17
2018-03-25T09:15:26.368Z,53.44
2018-03-25T09:17:57.136Z,53.41
2018-03-25T09:20:27.903Z,52.70
2018-03-25T09:22:58.667Z,52.76
2018-03-25T09:25:29.441Z,53.70
2018-03-25T09:28:00.216Z,52.37
2018-03-25T09:30:30.967Z,53.46
2018-03-25T09:33:01.721Z,51.59
2018-03-25T09:35:32.497Z,50.17
2018-03-25T09:38:03.275Z,50.22
2018-03-25T09:40:34.020Z,50.20
2018-03-25T09:43:04.778Z,50.85
2018-03-25T09:45:35.515Z,49.75
2018-03-25T09:48:06.263Z,47.60
2018-03-25T09:50:37.042Z,49.07
2018-03-25T09:53:07.805Z,49.84
2018-03-25T09:55:38.590Z,50.21
2018-03-25T09:58:09.328Z,48.64
2018-03-25T10:00:40.100Z,46.60
2018-03-25T10:03:14.845Z,48.89
2018-03-25T10:05:45.609Z,48.33
2018-03-25T10:08:16.365Z,45.62
2018-03-25T10:10:47.769Z,45.27
2018-03-25T10:13:18.513Z,43.63
2018-03-25T10:15:56.113Z,44.69
2018-03-25T10:18:26.853Z,44.28
2018-03-25T10:20:57.636Z,46.11
2018-03-25T10:23:28.389Z,44.23
2018-03-25T10:25:59.156Z,43.81
2018-03-25T10:28:29.908Z,44.37
2018-03-25T10:31:00.672Z,44.73
2018-03-25T10:33:31.525Z,47.37
2018-03-25T10:36:02.312Z,45.72
2018-03-25T10:38:33.088Z,46.33
2018-03-25T10:41:03.872Z,50.39
2018-03-25T10:43:34.658Z,49.75
2018-03-25T10:46:05.391Z,47.33
2018-03-25T10:48:36.125Z,47.87
2018-03-25T10:51:06.900Z,47.20
2018-03-25T10:53:37.688Z,50.20
2018-03-25T10:56:08.473Z,46.84
2018-03-25T10:58:39.244Z,48.22
2018-03-25T11:01:10.008Z,47.91
2018-03-25T11:03:40.772Z,47.61
2018-03-25T11:06:11.533Z,47.58
2018-03-25T11:08:42.272Z,48.82
2018-03-25T11:11:13.033Z,44.98
2018-03-25T11:13:43.844Z,44.74
2018-03-25T11:16:14.600Z,45.12
2018-03-25T11:18:45.357Z,45.12
2018-03-25T11:21:16.135Z,46.15
2018-03-25T11:23:46.893Z,47.04
2018-03-25T11:26:17.657Z,44.91
2018-03-25T11:28:48.401Z,44.82
2018-03-25T11:31:19.221Z,43.85
2018-03-25T11:33:49.977Z,41.59
2018-03-25T11:36:20.789Z,42.78
2018-03-25T11:38:51.562Z,44.42
2018-03-25T11:41:22.329Z,43.00
2018-03-25T11:43:53.094Z,41.91
2018-03-25T11:46:23.861Z,43.17
2018-03-25T11:48:54.627Z,43.31
2018-03-25T11:51:25.389Z,43.79
2018-03-25T11:53:56.140Z,44.78
2018-03-25T11:56:26.941Z,46.55
2018-03-25T11:58:57.680Z,44.59
2018-03-25T12:01:28.461Z,43.08
2018-03-25T12:03:59.205Z,43.17
2018-03-25T12:06:29.985Z,42.40
2018-03-25T12:09:00.754Z,41.87
2018-03-25T12:11:31.527Z,43.30
2018-03-25T12:14:02.322Z,40.78
2018-03-25T12:16:33.081Z,41.33
2018-03-25T12:19:03.822Z,41.56
2018-03-25T12:21:34.585Z,41.53
2018-03-25T12:24:05.358Z,40.19
2018-03-25T12:26:36.128Z,41.15
2018-03-25T12:29:06.907Z,41.59
2018-03-25T12:31:37.662Z,40.99
2018-03-25T12:34:08.408Z,39.89
2018-03-25T12:36:39.177Z,40.33
2018-03-25T12:39:09.920Z,40.22
2018-03-25T12:41:40.680Z,39.70
2018-03-25T12:44:11.426Z,41.54
2018-03-25T12:46:42.176Z,40.41
2018-03-25T12:49:12.934Z,40.36
2018-03-25T12:51:43.708Z,37.81
2018-03-25T12:54:14.480Z,36.91
2018-03-25T12:56:45.245Z,36.88
2018-03-25T12:59:16.009Z,38.30
2018-03-25T13:01:46.786Z,38.64
2018-03-25T13:04:17.537Z,38.94
2018-03-25T13:06:48.388Z,37.70
2018-03-25T13:09:19.264Z,37.43
2018-03-25T13:11:50.049Z,36.54
2018-03-25T13:14:20.810Z,35.58
2018-03-25T13:16:51.562Z,38.33
2018-03-25T13:19:22.312Z,37.40
2018-03-25T13:21:53.090Z,36.20
2018-03-25T13:24:23.837Z,35.53
2018-03-25T13:26:54.616Z,33.63
2018-03-25T13:29:25.379Z,31.91
2018-03-25T13:31:57.156Z,31.44
2018-03-25T13:34:27.933Z,30.21
2018-03-25T13:36:58.697Z,32.07
2018-03-25T13:39:29.449Z,30.62
2018-03-25T13:42:01.336Z,31.79
2018-03-25T13:44:32.102Z,30.51
2018-03-25T13:47:02.863Z,26.26
2018-03-25T13:49:33.638Z,28.03
2018-03-25T13:52:04.433Z,27.81
2018-03-25T13:54:35.184Z,28.45
2018-03-25T13:57:05.975Z,24.92
2018-03-25T13:59:36.724Z,27.62
2018-03-25T14:02:07.554Z,27.82
2018-03-25T14:04:38.296Z,28.23
2018-03-25T14:07:09.246Z,27.58
2018-03-25T14:09:39.996Z,25.98
2018-03-25T14:12:10.769Z,27.05
2018-03-25T14:14:41.530Z,25.87
2018-03-25T14:17:12.309Z,25.97
2018-03-25T14:19:43.069Z,25.44
2018-03-25T14:22:13.842Z,24.78
2018-03-25T14:24:44.656Z,26.33
2018-03-25T14:27:15.479Z,25.13
2018-03-25T14:29:46.301Z,27.27
2018-03-25T14:32:17.866Z,27.42
2018-03-25T14:34:48.754Z,27.35
2018-03-25T14:37:19.525Z,27.76
2018-03-25T14:39:50.297Z,25.40
2018-03-25T14:42:21.088Z,24.65
2018-03-25T14:44:51.882Z,25.22
2018-03-25T14:47:22.661Z,26.37
2018-03-25T14:49:53.425Z,24.22
2018-03-25T14:52:24.223Z,25.79
2018-03-25T14:54:55.090Z,27.18
2018-03-25T14:57:25.880Z,26.90
2018-03-25T14:59:56.650Z,26.44
2018-03-25T15:02:27.453Z,24.21
2018-03-25T15:04:58.261Z,24.93
2018-03-25T15:07:29.027Z,23.62
2018-03-25T15:09:59.797Z,25.00
2018-03-25T15:12:30.626Z,24.71
2018-03-25T15:15:01.411Z,23.21
2018-03-25T15:17:32.188Z,25.10
2018-03-25T15:20:02.966Z,26.54
2018-03-25T15:22:33.751Z,25.63
2018-03-25T15:25:04.857Z,25.29
2018-03-25T15:27:35.718Z,28.21
2018-03-25T15:30:06.481Z,28.03
2018-03-25T15:32:37.266Z,29.67
2018-03-25T15:35:08.031Z,30.50
2018-03-25T15:37:38.809Z,32.18
2018-03-25T15:40:09.581Z,32.78
2018-03-25T15:42:40.385Z,32.33
2018-03-25T15:45:11.196Z,35.14
2018-03-25T15:47:41.948Z,35.46
2018-03-25T15:50:12.725Z,35.99
2018-03-25T15:52:43.828Z,37.50
2018-03-25T15:55:14.600Z,35.57
2018-03-25T15:57:45.389Z,37.32
2018-03-25T16:00:16.166Z,37.90
2018-03-25T16:02:46.954Z,38.00
2018-03-25T16:05:17.720Z,38.64
2018-03-25T16:07:48.524Z,37.95
2018-03-25T16:10:19.283Z,37.05
2018-03-25T16:12:50.052Z,38.25
2018-03-25T16:15:20.813Z,39.58
2018-03-25T16:17:51.686Z,38.74
2018-03-25T16:20:22.455Z,37.53
2018-03-25T16:22:53.284Z,39.14
2018-03-25T16:25:24.162Z,39.18
2018-03-25T16:27:54.954Z,39.84
2018-03-25T16:30:25.732Z,41.02
2018-03-25T16:32:56.537Z,40.68
2018-03-25T16:35:27.298Z,40.82
2018-03-25T16:37:58.082Z,41.96
2018-03-25T16:40:28.824Z,43.06
2018-03-25T16:42:59.618Z,42.23
2018-03-25T16:45:30.385Z,42.47
2018-03-25T16:48:01.174Z,44.47
2018-03-25T16:50:31.920Z,42.82
2018-03-25T16:53:02.698Z,44.28
2018-03-25T16:55:33.436Z,44.29
2018-03-25T16:58:04.208Z,43.90
2018-03-25T17:00:34.953Z,44.11
2018-03-25T17:03:05.724Z,44.70
2018-03-25T17:05:36.461Z,44.84
2018-03-25T17:08:07.235Z,46.09
2018-03-25T17:10:37.986Z,47.25
2018-03-25T17:13:08.735Z,48.49
2018-03-25T17:15:39.492Z,51.45
2018-03-25T17:18:10.249Z,50.48
2018-03-25T17:20:41.506Z,50.36
2018-03-25T17:23:12.279Z,50.80
2018-03-25T17:25:43.048Z,51.30
2018-03-25T17:28:13.818Z,51.53
2018-03-25T17:30:44.588Z,52.53
2018-03-25T17:33:15.353Z,53.31
2018-03-25T17:35:46.100Z,53.09
2018-03-25T17:38:16.865Z,53.80
2018-03-25T17:40:48.709Z,54.45
2018-03-25T17:43:19.477Z,53.69
2018-03-25T17:45:50.234Z,54.17
2018-03-25T17:48:21.957Z,54.56
2018-03-25T17:50:52.740Z,55.50
2018-03-25T17:53:23.605Z,56.65
2018-03-25T17:55:54.434Z,57.96
2018-03-25T17:58:26.207Z,57.50
2018-03-25T18:00:56.966Z,57.50
2018-03-25T18:03:27.726Z,58.37
2018-03-25T18:05:58.461Z,58.40
2018-03-25T18:08:29.237Z,60.35
2018-03-25T18:10:59.980Z,60.27
2018-03-25T18:13:30.742Z,61.63
2018-03-25T18:16:01.518Z,60.94
2018-03-25T18:18:32.377Z,60.63
2018-03-25T18:21:04.152Z,60.21
2018-03-25T18:23:34.913Z,61.43
2018-03-25T18:26:05.659Z,61.44
2018-03-25T18:28:36.417Z,61.84
2018-03-25T18:31:09.237Z,62.50
2018-03-25T18:33:40.021Z,62.55
2018-03-25T18:36:10.774Z,63.91
2018-03-25T18:38:41.526Z,64.24
2018-03-25T18:41:12.948Z,65.00
2018-03-25T18:43:43.699Z,64.83
2018-03-25T18:46:14.440Z,65.76
2018-03-25T18:48:47.797Z,66.28
2018-03-25T18:51:18.557Z,66.81
2018-03-25T18:53:49.319Z,67.00
2018-03-25T18:56:20.069Z,67.49
2018-03-25T18:58:50.824Z,68.15
2018-03-25T19:01:21.560Z,67.84
2018-03-25T19:03:52.324Z,67.91
2018-03-25T19:06:23.056Z,67.19
2018-03-25T19:08:53.800Z,67.05
2018-03-25T19:11:24.561Z,66.16
2018-03-25T19:13:55.308Z,66.22
2018-03-25T19:16:26.040Z,65.86
2018-03-25T19:18:56.807Z,66.04
2018-03-25T19:21:27.537Z,66.18
2018-03-25T19:23:58.302Z,66.45
2018-03-25T19:26:29.038Z,66.51
2018-03-25T19:28:59.798Z,66.71
2018-03-25T19:31:30.545Z,66.95
2018-03-25T19:34:01.321Z,67.65
2018-03-25T19:36:32.066Z,67.87
2018-03-25T19:39:02.890Z,68.56
2018-03-25T19:41:33.629Z,68.73
2018-03-25T19:44:04.399Z,69.45
2018-03-25T19:46:35.161Z,70.00
2018-03-25T19:49:05.910Z,70.85
2018-03-25T19:51:36.676Z,70.88
2018-03-25T19:54:07.464Z,71.58
2018-03-25T19:56:39.225Z,72.04
2018-03-25T19:59:10.025Z,71.84
2018-03-25T20:01:40.797Z,72.13
2018-03-25T20:04:11.568Z,71.95
2018-03-25T20:06:42.383Z,71.78
2018-03-25T20:09:13.197Z,71.82
2018-03-25T20:11:43.962Z,72.54
2018-03-25T20:14:14.726Z,72.71
2018-03-25T20:16:45.485Z,72.90
2018-03-25T20:19:16.294Z,73.45
2018-03-25T20:21:47.060Z,74.09
2018-03-25T20:24:17.839Z,74.82
2018-03-25T20:26:48.609Z,75.11
2018-03-25T20:29:19.401Z,75.39
2018-03-25T20:31:50.152Z,74.19
2018-03-25T20:34:20.930Z,74.65
2018-03-25T20:36:51.681Z,75.56
2018-03-25T20:39:22.457Z,76.32
2018-03-25T20:41:53.212Z,76.54
2018-03-25T20:44:23.980Z,76.44
2018-03-25T20:46:54.738Z,75.34
2018-03-25T20:49:31.579Z,75.66
2018-03-25T20:52:03.932Z,75.78
2018-03-25T20:54:34.705Z,76.21
2018-03-25T20:57:05.466Z,76.37
2018-03-25T20:59:36.480Z,76.79
2018-03-25T21:02:07.212Z,76.91
2018-03-25T21:04:37.970Z,77.00
2018-03-25T21:07:09.840Z,77.01
2018-03-25T21:09:40.604Z,77.28
2018-03-25T21:12:11.341Z,77.63
2018-03-25T21:14:42.098Z,77.98
2018-03-25T21:17:12.861Z,78.17
2018-03-25T21:19:43.626Z,78.55
2018-03-25T21:22:14.377Z,78.57
2018-03-25T21:24:45.300Z,78.83
2018-03-25T21:27:16.057Z,79.70
2018-03-25T21:29:46.889Z,80.08
2018-03-25T21:32:17.663Z,80.02
2018-03-25T21:34:49.525Z,80.22
2018-03-25T21:37:20.476Z,80.34
2018-03-25T21:39:51.233Z,80.26
2018-03-25T21:42:21.966Z,80.57
2018-03-25T21:44:52.716Z,80.87
2018-03-25T21:47:23.457Z,80.68
2018-03-25T21:49:54.212Z,80.66
2018-03-25T21:52:24.965Z,81.12
2018-03-25T21:54:55.730Z,81.49
2018-03-25T21:57:26.477Z,81.55
2018-03-25T21:59:57.263Z,82.00
2018-03-25T22:02:28.001Z,82.63
2018-03-25T22:04:58.762Z,83.32
2018-03-25T22:07:30.548Z,83.57
2018-03-25T22:10:01.319Z,83.54
2018-03-25T22:12:32.058Z,83.27
2018-03-25T22:15:02.851Z,83.68
2018-03-25T22:17:33.585Z,83.87
2018-03-25T22:20:04.374Z,84.08
2018-03-25T22:22:35.113Z,84.25
2018-03-25T22:25:05.884Z,84.57
2018-03-25T22:27:36.620Z,84.52
2018-03-25T22:30:07.361Z,83.86
2018-03-25T22:32:38.125Z,83.77
2018-03-25T22:35:08.889Z,83.62
2018-03-25T22:37:39.674Z,83.94
2018-03-25T22:40:10.609Z,83.69
2018-03-25T22:42:41.529Z,83.83
2018-03-25T22:45:12.366Z,84.41
2018-03-25T22:47:43.114Z,84.67
2018-03-25T22:50:13.876Z,84.95
2018-03-25T22:52:44.627Z,85.28
2018-03-25T22:55:15.389Z,85.51
2018-03-25T22:57:46.144Z,85.69
2018-03-25T23:00:16.914Z,85.93
2018-03-25T23:02:47.665Z,85.91
2018-03-25T23:05:18.484Z,86.08
2018-03-25T23:07:49.232Z,86.10
2018-03-25T23:10:20.045Z,86.21
2018-03-25T23:12:50.804Z,86.20
2018-03-25T23:15:21.576Z,86.31
2018-03-25T23:17:52.315Z,86.62
2018-03-25T23:20:23.082Z,86.87
2018-03-25T23:22:53.833Z,86.99
2018-03-25T23:25:24.576Z,87.13
2018-03-25T23:27:55.309Z,87.19
2018-03-25T23:30:26.070Z,87.21
2018-03-25T23:32:56.833Z,87.17
2018-03-25T23:35:27.585Z,87.28
2018-03-25T23:37:58.328Z,87.03
2018-03-25T23:40:29.094Z,87.13
2018-03-25T23:42:59.820Z,87.46
2018-03-25T23:45:30.590Z,87.88
2018-03-25T23:48:01.321Z,88.01
2018-03-25T23:50:32.122Z,88.10
2018-03-25T23:53:02.879Z,88.25
2018-03-25T23:55:33.673Z,88.40
2018-03-25T23:58:04.562Z,88.58
